Latest Weather Observations for Macquarie Island

IDT60801

Issued at 5:51 am EST Thursday 19 September 2019 (issued every 10 minutes, with the page automatically refreshed every 10 minutes)

About weather observations | Map of weather stations | Latest weather observations for TAS | Other Formats
Station Details ID: 300004 Name: MACQUARIE ISLAND Lat: -54.50 Lon: 158.94 Height: 6.0 m
Data from the previous 72 hours. | See also: Recent months at Macquarie Island
Date/Time
EST
Temp
°C
App
Temp
°C
Dew
Point
°C
Rel
Hum
%
Delta-T
°C
Wind Press
QNH
hPa
Press
MSL
hPa
Rain since
9am
mm
Dir  Spd
km/h
Gust
km/h
Spd
kts
Gust
kts
19/05:30am 2.9 -2.0 1.9 93 0.4 SE 17 20 9 11 1010.8 - 3.2
19/05:00am 2.8 -1.8 1.8 93 0.4 ESE 15 17 8 9 1010.7 - 3.0
19/04:30am 2.7 -0.8 1.5 92 0.5 NE 9 17 5 9 1011.0 - 2.2
19/04:00am 2.6 -0.8 1.6 93 0.4 N 9 17 5 9 1011.0 - 1.6
19/03:30am 2.7 -2.3 1.5 92 0.5 N 17 20 9 11 1011.0 - 1.0
19/03:00am 2.9 -2.1 1.6 91 0.5 N 17 20 9 11 1011.4 1011.7 0.8
19/02:30am 2.6 -1.7 1.1 90 0.6 NNW 13 17 7 9 1011.4 - 0.6
19/02:00am 2.8 -2.2 1.2 89 0.6 NNW 17 20 9 11 1011.7 - 0.4
19/01:30am 2.9 -3.1 0.8 86 0.8 NW 22 28 12 15 1012.1 - 0.2
19/01:00am 3.3 -2.5 0.0 79 1.2 NNW 20 26 11 14 1012.2 - 0.0
19/12:30am 3.6 -1.2 0.0 77 1.3 NW 15 17 8 9 1012.1 - 0.0
19/12:00am 3.5 -1.8 -0.5 75 1.5 NW 17 19 9 10 1012.1 1012.4 0.0
 
Date/Time
EST
Temp
°C
App
Temp
°C
Dew
Point
°C
Rel
Hum
%
Delta-T
°C
Wind Press
QNH
hPa
Press
MSL
hPa
Rain since
9am
mm
Dir  Spd
km/h
Gust
km/h
Spd
kts
Gust
kts
18/11:30pm 3.5 -2.2 -0.5 75 1.5 NW 19 20 10 11 1012.1 - 0.0
18/11:00pm 3.4 -2.5 -0.6 75 1.5 WNW 20 24 11 13 1011.9 - 0.0
18/10:30pm 3.3 -2.4 -0.5 76 1.4 WNW 19 22 10 12 1011.7 - 0.0
18/10:00pm 3.4 -3.3 -0.8 74 1.5 WNW 24 30 13 16 1011.7 - 0.0
18/09:30pm 3.4 -4.4 -0.8 74 1.5 WNW 30 33 16 18 1011.4 - 0.0
18/09:00pm 3.6 -4.5 -0.6 74 1.5 WNW 32 37 17 20 1011.1 1011.4 0.0
18/08:30pm 3.5 -4.3 -0.7 74 1.5 WNW 30 35 16 19 1010.7 - 0.0
18/08:00pm 3.4 -5.0 -0.8 74 1.5 WNW 33 41 18 22 1010.5 - 0.0
18/07:30pm 3.3 -5.1 -1.1 73 1.6 W 33 41 18 22 1009.9 - 0.0
18/07:00pm 3.4 -4.8 -1.0 73 1.6 W 32 39 17 21 1009.3 - 0.0
18/06:30pm 3.5 -5.8 -2.2 66 2.0 W 37 46 20 25 1009.1 - 0.0
18/06:00pm 3.6 -7.1 -2.3 65 2.1 W 44 57 24 31 1008.8 1009.1 0.0
18/05:30pm 3.9 -7.1 -1.9 66 2.1 W 46 59 25 32 1008.3 - 0.0
18/05:00pm 4.0 -7.0 -2.2 64 2.2 W 46 59 25 32 1007.4 - 0.0
18/04:30pm 4.1 -7.7 -2.1 64 2.2 W 50 63 27 34 1006.8 - 0.0
18/04:00pm 4.1 -8.0 -1.7 66 2.1 W 52 63 28 34 1005.9 - 0.0
18/03:30pm 4.6 -7.0 -0.6 69 1.9 W 50 61 27 33 1004.9 - 0.0
18/03:00pm 4.5 -8.9 -1.7 64 2.3 W 59 72 32 39 1004.3 1004.6 0.0
18/02:31pm 4.2 -8.2 -1.0 69 1.9 W 54 72 29 39 1003.4 - 0.0
18/02:30pm 4.2 -8.5 -0.8 70 1.8 W 56 72 30 39 1003.4 - 0.0
18/02:00pm 4.0 -7.0 0.5 78 1.3 W 48 69 26 37 1002.8 - 0.0
18/01:40pm 4.3 -7.1 0.3 75 1.5 W 50 69 27 37 1002.2 - 0.0
18/01:30pm 4.3 -8.4 -0.3 72 1.7 W 56 69 30 37 1002.1 - 0.0
18/01:00pm 4.8 -5.5 0.0 71 1.8 W 44 63 24 34 1001.1 - 0.0
18/12:52pm 4.6 -6.6 -0.6 69 1.9 W 48 67 26 36 1001.0 - 0.0
18/12:30pm 4.4 -8.7 -2.0 63 2.3 W 57 72 31 39 1000.9 - 0.0
18/12:00pm 4.9 -8.4 -0.5 68 2.0 W 59 89 32 48 1000.3 1000.6 0.0
18/11:34am 4.0 -8.4 1.2 82 1.1 W 56 74 30 40 999.7 - 0.0
18/11:30am 3.8 -8.9 0.8 81 1.1 W 57 74 31 40 999.6 - 0.0
18/11:23am 4.3 -7.1 0.6 77 1.4 W 50 69 27 37 999.6 - 0.0
18/11:00am 5.0 -6.5 0.2 71 1.8 WNW 50 61 27 33 998.8 - 0.0
18/10:30am 4.9 -7.5 -0.9 66 2.2 W 54 72 29 39 998.7 - 0.0
18/10:00am 4.7 -5.3 0.7 75 1.5 WNW 43 63 23 34 998.0 - 0.0
18/09:32am 4.2 -8.0 0.0 74 1.6 W 54 72 29 39 997.6 - 0.0
18/09:30am 4.3 -7.5 0.5 76 1.5 W 52 67 28 36 997.7 - 0.0
18/09:00am 4.3 -8.9 0.1 74 1.6 WNW 59 87 32 47 996.5 996.8 3.0
18/08:47am 4.7 -7.9 0.1 72 1.7 WNW 56 74 30 40 996.2 - 3.0
18/08:30am 4.7 -7.2 -0.5 69 1.9 WNW 52 69 28 37 995.8 - 3.0
18/08:00am 4.6 -8.6 -0.2 71 1.8 WNW 59 78 32 42 995.2 - 3.0
18/07:30am 4.3 -9.4 -0.7 70 1.9 WNW 61 80 33 43 994.4 - 3.0
18/07:00am 3.7 -9.4 0.4 79 1.2 W 59 80 32 43 994.0 - 3.0
18/06:47am 3.4 -9.6 1.4 87 0.8 W 59 78 32 42 993.8 - 3.0
18/06:42am 3.6 -9.4 1.5 86 0.8 W 59 72 32 39 993.5 - 3.0
18/06:39am 3.7 -13.3 1.1 83 1.0 WNW 80 100 43 54 993.2 - 3.0
18/06:36am 4.7 -13.7 0.8 76 1.5 WNW 87 98 47 53 992.6 - 2.8
18/06:31am 5.0 -9.7 -0.2 69 2.0 WNW 67 85 36 46 992.2 - 2.8
18/06:30am 4.9 -9.9 -0.3 69 2.0 WNW 67 82 36 44 992.2 - 2.8
18/06:25am 4.9 -9.1 -0.3 69 2.0 WNW 63 82 34 44 992.1 - 2.8
18/06:00am 4.6 -7.2 0.2 73 1.7 WNW 52 65 28 35 992.3 992.6 2.8
18/05:30am 4.5 -8.1 0.1 73 1.7 WNW 56 70 30 38 992.2 - 2.8
18/05:00am 4.6 -10.4 0.7 76 1.5 WNW 69 98 37 53 991.5 - 2.8
18/04:30am 4.1 -10.2 -0.1 74 1.6 WNW 65 85 35 46 990.7 - 2.8
18/04:15am 3.7 -13.4 0.7 81 1.1 WNW 80 102 43 55 990.7 - 2.8
18/04:14am 3.6 -14.9 0.1 78 1.3 WNW 87 102 47 55 990.7 - 2.8
18/04:11am 4.8 -9.5 0.2 72 1.8 WNW 65 95 35 51 990.2 - 2.6
18/04:00am 4.7 -9.3 -0.3 70 1.9 WNW 63 80 34 43 990.1 - 2.6
18/03:30am 4.7 -10.0 0.3 73 1.7 WNW 67 85 36 46 990.1 - 2.6
18/03:26am 4.6 -9.7 0.4 74 1.6 WNW 65 85 35 46 990.0 - 2.6
18/03:00am 4.8 -9.5 0.4 73 1.7 WNW 65 76 35 41 989.7 990.0 2.6
18/02:34am 4.4 -8.1 0.9 78 1.4 WNW 56 74 30 40 989.5 - 2.6
18/02:30am 4.4 -8.1 0.9 78 1.4 WNW 56 72 30 39 989.7 - 2.6
18/02:00am 4.5 -9.0 0.3 74 1.6 WNW 61 74 33 40 989.1 - 2.6
18/01:32am 4.7 -7.8 0.8 76 1.5 WNW 56 76 30 41 988.7 - 2.6
18/01:30am 4.7 -7.4 1.2 78 1.4 WNW 54 69 29 37 988.7 - 2.6
18/01:00am 4.6 -7.5 1.1 78 1.4 WNW 54 70 29 38 988.3 - 2.6
18/12:30am 4.4 -8.1 0.9 78 1.4 WNW 56 67 30 36 987.9 - 2.6
18/12:00am 4.3 -8.4 0.6 77 1.4 WNW 57 72 31 39 987.5 987.8 2.6
 
Date/Time
EST
Temp
°C
App
Temp
°C
Dew
Point
°C
Rel
Hum
%
Delta-T
°C
Wind Press
QNH
hPa
Press
MSL
hPa
Rain since
9am
mm
Dir  Spd
km/h
Gust
km/h
Spd
kts
Gust
kts
17/11:30pm 4.4 -8.2 1.1 79 1.3 WNW 57 76 31 41 987.1 - 2.6
17/11:20pm 4.4 -7.2 1.4 81 1.2 WNW 52 70 28 38 986.8 - 2.6
17/11:00pm 4.2 -7.4 1.6 83 1.0 WNW 52 63 28 34 986.4 - 2.6
17/10:30pm 3.8 -7.0 1.7 86 0.8 WNW 48 61 26 33 985.8 - 2.6
17/10:00pm 3.6 -8.3 2.0 89 0.6 W 54 72 29 39 985.3 - 2.6
17/09:58pm 3.6 -8.3 2.0 89 0.6 W 54 72 29 39 985.4 - 2.4
17/09:49pm 3.8 -7.3 2.2 89 0.6 W 50 54 27 29 985.4 - 2.4
17/09:39pm 4.5 -10.2 2.5 87 0.8 WNW 69 89 37 48 985.1 - 2.4
17/09:30pm 5.8 -6.6 4.4 91 0.6 NW 59 87 32 47 983.1 - 2.2
17/09:02pm 5.6 -6.9 4.1 90 0.6 NW 59 78 32 42 983.4 - 2.2
17/09:00pm 5.6 -7.3 4.1 90 0.6 NW 61 78 33 42 983.5 983.8 2.2
17/08:30pm 5.6 -6.9 4.2 91 0.6 NW 59 80 32 43 983.8 - 2.0
17/08:00pm 5.6 -7.3 4.2 91 0.6 NW 61 89 33 48 984.1 - 2.0
17/07:30pm 5.4 -7.1 4.2 92 0.5 NW 59 83 32 45 984.4 - 2.0
17/07:07pm 5.3 -7.2 4.1 92 0.5 NW 59 78 32 42 984.7 - 1.8
17/07:00pm 5.3 -7.5 4.3 93 0.4 NW 61 76 33 41 984.8 - 1.8
17/06:45pm 5.4 -7.1 4.2 92 0.5 NW 59 78 32 42 984.9 - 1.6
17/06:30pm 5.3 -8.0 4.1 92 0.5 NW 63 80 34 43 985.1 - 1.6
17/06:00pm 5.3 -8.3 4.1 92 0.5 NW 65 83 35 45 985.5 985.8 1.4
17/05:30pm 5.3 -9.1 4.0 91 0.5 NNW 69 89 37 48 985.6 - 1.2
17/05:28pm 5.3 -9.1 4.1 92 0.5 NNW 69 89 37 48 985.6 - 1.2
17/05:00pm 5.1 -8.2 3.8 91 0.5 NW 63 78 34 42 986.3 - 1.0
17/04:45pm 5.2 -8.1 3.9 91 0.5 NW 63 82 34 44 986.4 - 1.0
17/04:30pm 5.1 -8.6 3.8 91 0.5 NW 65 80 35 43 986.8 - 0.8
17/04:01pm 5.1 -7.8 3.8 91 0.5 NW 61 80 33 43 987.2 - 0.6
17/04:00pm 5.1 -8.2 3.8 91 0.5 NW 63 80 34 43 987.1 - 0.6
17/03:34pm 5.1 -7.9 3.6 90 0.6 NW 61 82 33 44 987.5 - 0.6
17/03:30pm 5.1 -7.9 3.6 90 0.6 NW 61 78 33 42 987.6 - 0.6
17/03:14pm 5.1 -7.9 3.6 90 0.6 NW 61 80 33 43 987.8 - 0.4
17/03:00pm 5.0 -7.6 3.5 90 0.6 NW 59 76 32 41 988.0 988.3 0.4
17/02:30pm 5.0 -7.3 3.3 89 0.7 NW 57 78 31 42 988.4 - 0.4
17/02:24pm 5.1 -7.2 3.4 89 0.7 NW 57 78 31 42 988.4 - 0.2
17/02:00pm 4.9 -7.4 3.4 90 0.6 NW 57 72 31 39 988.8 - 0.2
17/01:38pm 4.9 -7.8 3.2 89 0.7 NW 59 78 32 42 989.0 - 0.2
17/01:30pm 5.0 -7.7 3.3 89 0.7 NW 59 74 32 40 989.2 - 0.2
17/01:00pm 4.9 -7.2 3.1 88 0.7 NW 56 76 30 41 989.6 - 0.2
17/12:32pm 4.8 -7.4 2.7 86 0.9 NW 56 74 30 40 990.1 - 0.0
17/12:30pm 4.8 -7.4 2.7 86 0.9 NW 56 72 30 39 990.1 - 0.0
17/12:01pm 4.7 -6.1 2.2 84 1.0 NW 48 67 26 36 990.8 - 0.0
17/12:00pm 4.8 -6.3 2.3 84 1.0 NW 50 67 27 36 990.8 991.1 0.0
17/11:32am 4.7 -5.7 1.9 82 1.1 NW 46 65 25 35 991.4 - 0.0
17/11:30am 4.7 -5.7 1.9 82 1.1 NW 46 57 25 31 991.5 - 0.0
17/11:00am 4.5 -6.0 1.5 81 1.2 NW 46 56 25 30 992.4 - 0.0
17/10:30am 4.0 -6.9 1.5 84 1.0 NW 48 54 26 29 992.8 - 0.0
17/10:06am 4.0 -6.1 0.5 78 1.3 NW 43 61 23 33 993.0 - 0.0
17/10:00am 4.0 -5.6 1.2 82 1.1 NW 41 48 22 26 993.1 - 0.0
17/09:30am 3.8 -6.4 0.7 80 1.2 WNW 44 54 24 29 993.3 - 0.0
17/09:00am 3.6 -6.6 -0.4 75 1.5 WNW 43 54 23 29 993.5 993.8 1.6
17/08:30am 3.3 -6.3 -1.6 70 1.8 W 39 50 21 27 993.7 - 1.6
17/08:00am 3.2 -7.5 -2.5 66 2.0 W 44 59 24 32 993.7 - 1.6
17/07:50am 2.8 -7.7 -2.3 69 1.8 W 43 63 23 34 993.5 - 1.6
17/07:30am 2.3 -8.3 -1.8 74 1.4 W 44 54 24 29 993.5 - 1.6
17/07:00am 2.0 -6.4 -2.5 72 1.5 W 32 43 17 23 993.3 - 1.6
17/06:30am 1.6 -10.3 -3.1 71 1.6 W 50 67 27 36 993.1 - 1.6
17/06:21am 1.8 -9.2 -2.3 74 1.4 W 46 67 25 36 992.7 - 1.6
17/06:00am 1.8 -8.7 -2.3 74 1.4 W 43 54 23 29 992.3 992.6 1.6
17/05:30am 1.3 -10.0 -4.5 65 2.0 W 46 67 25 36 992.1 - 1.6
17/05:00am 1.0 -10.3 -4.4 67 1.8 W 46 69 25 37 991.4 - 1.6
17/04:30am -0.4 -13.4 -2.9 83 0.8 W 56 80 30 43 991.2 - 1.4
17/04:00am 1.1 -11.4 -4.9 64 2.0 W 52 72 28 39 990.6 - 1.2
17/03:33am 0.4 -11.8 -5.6 64 1.9 W 50 69 27 37 990.1 - 1.2
17/03:30am 0.6 -11.8 -4.4 69 1.7 W 52 69 28 37 990.1 - 1.2
17/03:00am -1.1 -11.3 -3.0 87 0.6 W 41 74 22 40 989.6 989.9 1.2
17/02:47am -0.4 -12.7 -3.4 80 1.0 W 52 93 28 50 989.6 - 1.2
17/02:30am 0.5 -11.5 -3.9 72 1.5 W 50 74 27 40 989.0 - 1.2
17/02:00am -1.1 -13.1 -3.6 83 0.8 W 50 87 27 47 989.4 - 1.2
17/01:30am -2.1 -13.9 -5.4 78 0.9 W 48 74 26 40 988.9 - 1.2
17/01:12am -0.9 -12.3 -5.5 71 1.4 W 46 85 25 46 988.4 - 1.2
17/01:00am -1.8 -12.2 -5.1 78 0.9 W 41 65 22 35 988.1 - 1.0
17/12:52am -2.0 -11.9 -4.3 84 0.6 W 39 63 21 34 988.0 - 1.0
17/12:42am 0.7 -13.4 -4.5 68 1.7 W 61 82 33 44 988.2 - 1.0
17/12:40am 0.6 -13.7 -5.6 63 2.0 W 61 74 33 40 988.0 - 1.0
17/12:30am 0.6 -10.3 -6.7 58 2.3 W 43 78 23 42 987.6 - 1.0
17/12:00am -0.2 -11.3 -6.8 61 2.0 W 44 67 24 36 987.5 987.8 1.0
 
Date/Time
EST
Temp
°C
App
Temp
°C
Dew
Point
°C
Rel
Hum
%
Delta-T
°C
Wind Press
QNH
hPa
Press
MSL
hPa
Rain since
9am
mm
Dir  Spd
km/h
Gust
km/h
Spd
kts
Gust
kts
16/11:30pm -0.6 -12.8 -5.8 68 1.6 W 50 69 27 37 987.3 - 1.0
16/11:02pm -1.0 -12.4 -5.2 73 1.3 W 46 67 25 36 986.6 - 1.0
16/11:00pm -1.2 -12.5 -4.7 77 1.1 W 46 59 25 32 986.6 - 1.0
16/10:43pm -2.0 -16.2 -4.8 81 0.8 W 61 93 33 50 987.4 - 1.0
16/10:42pm -1.7 -10.4 -5.0 78 1.0 W 32 93 17 50 987.1 - 1.0
16/10:40pm -1.6 -9.2 -5.4 75 1.1 WSW 26 67 14 36 986.8 - 1.0
16/10:30pm -1.6 -10.3 -4.9 78 1.0 W 32 44 17 24 986.8 - 1.0
16/10:05pm -1.3 -9.3 -5.7 72 1.3 W 28 61 15 33 986.2 - 1.0
16/10:00pm -1.6 -8.4 -5.3 76 1.1 W 22 41 12 22 986.1 - 1.0
16/09:52pm -1.8 -10.5 -5.5 76 1.1 WSW 32 50 17 27 986.3 - 1.0
16/09:48pm -1.5 -10.8 -5.0 77 1.0 SW 35 50 19 27 986.4 - 1.0
16/09:45pm -0.6 -12.7 -4.5 75 1.2 W 50 72 27 39 986.1 - 1.0
16/09:44pm -0.4 -12.5 -5.0 71 1.4 W 50 67 27 36 985.9 - 1.0
16/09:30pm -0.7 -8.2 -4.9 73 1.3 W 26 48 14 26 985.7 - 1.0
16/09:00pm -0.3 -9.7 -6.7 62 2.0 W 35 63 19 34 985.4 985.7 1.0
16/08:39pm -0.7 -9.9 -7.9 58 2.1 WSW 33 52 18 28 985.2 - 1.0
16/08:38pm -0.7 -11.0 -7.7 59 2.0 SW 39 52 21 28 985.2 - 1.0
16/08:30pm -1.1 -11.2 -6.2 68 1.5 W 39 67 21 36 984.8 - 1.0
16/08:06pm -1.0 -12.0 -4.9 75 1.2 W 44 87 24 47 984.4 - 1.0
16/08:00pm -1.1 -9.9 -4.3 79 1.0 W 33 65 18 35 984.6 - 1.0
16/07:50pm -1.9 -10.3 -5.7 75 1.1 WSW 30 48 16 26 984.7 - 1.0
16/07:45pm -2.3 -11.6 -5.8 77 1.0 WSW 35 46 19 25 984.6 - 1.0
16/07:30pm -0.6 -12.9 -7.0 62 1.9 W 50 70 27 38 983.7 - 1.0
16/07:00pm -0.9 -9.6 -5.5 71 1.4 W 32 69 17 37 983.4 - 1.0
16/06:59pm -1.1 -9.5 -6.2 68 1.5 W 30 63 16 34 983.5 - 1.0
16/06:52pm -1.4 -10.2 -5.8 72 1.3 SW 32 41 17 22 983.4 - 1.0
16/06:49pm -1.6 -12.0 -5.4 75 1.1 W 41 59 22 32 983.3 - 1.0
16/06:48pm -1.6 -12.4 -5.3 76 1.1 W 43 59 23 32 983.3 - 1.0
16/06:41pm -0.5 -14.6 -3.9 78 1.1 W 61 87 33 47 982.9 - 1.0
16/06:40pm -0.3 -9.8 -3.8 77 1.1 W 37 87 20 47 982.8 - 1.0
16/06:39pm -0.4 -9.2 -4.6 73 1.3 W 33 69 18 37 982.8 - 1.0
16/06:36pm -0.5 -8.5 -5.7 68 1.6 W 28 50 15 27 982.7 - 1.0
16/06:30pm -0.5 -7.7 -5.3 70 1.5 WSW 24 39 13 21 982.7 - 1.0
16/06:00pm -1.6 -13.2 -4.1 83 0.7 W 48 69 26 37 982.4 982.7 1.0
16/05:30pm -0.6 -11.0 -5.0 72 1.4 W 41 76 22 41 981.7 - 1.0
16/05:00pm -0.1 -10.6 -5.9 65 1.8 W 41 74 22 40 981.0 - 1.0
16/04:50pm 0.0 -10.9 -6.0 64 1.9 W 43 76 23 41 980.7 - 1.0
16/04:30pm 0.5 -8.1 -4.3 70 1.6 W 32 57 17 31 980.5 - 1.0
16/04:00pm 0.1 -10.8 -4.2 73 1.4 W 44 63 24 34 980.3 - 1.0
16/03:30pm 0.5 -9.4 -3.6 74 1.4 W 39 67 21 36 979.8 - 1.0
16/03:22pm 0.7 -8.2 -2.3 80 1.1 W 35 67 19 36 979.5 - 1.0
16/03:00pm 0.7 -8.1 -1.1 88 0.6 W 35 48 19 26 979.7 980.0 1.0
16/02:30pm -1.1 -8.7 -2.4 91 0.4 W 28 56 15 30 979.7 - 0.2
16/02:23pm -1.4 -9.9 -3.0 89 0.5 WSW 32 56 17 30 979.9 - 0.2
16/02:16pm -0.3 -13.5 -2.7 84 0.8 W 57 69 31 37 979.7 - 0.2
16/02:14pm 1.2 -7.6 -1.5 82 0.9 W 35 67 19 36 979.2 - 0.2
16/02:00pm 1.8 -7.1 -1.8 77 1.3 W 35 43 19 23 979.2 - 0.2
16/01:30pm 0.6 -10.3 -1.3 87 0.7 W 46 57 25 31 979.5 - 0.2
16/01:08pm 1.8 -9.2 -2.3 74 1.4 W 46 65 25 35 979.3 - 0.0
16/01:00pm 3.2 -7.1 -1.2 73 1.6 W 43 59 23 32 978.9 - 0.0
16/12:30pm 3.0 -7.5 -2.5 67 1.9 W 43 52 23 28 979.0 - 0.0
16/12:00pm 2.9 -7.7 -1.6 72 1.6 W 44 54 24 29 979.1 979.4 0.0
16/11:30am 2.6 -7.8 -1.9 72 1.6 WNW 43 59 23 32 979.0 - 0.0
16/11:00am 2.2 -9.6 -2.5 71 1.6 WNW 50 72 27 39 979.1 - 0.0
16/10:49am 3.5 -7.8 -1.6 69 1.8 WNW 48 70 26 38 978.9 - 0.0
16/10:30am 3.5 -7.0 -2.9 63 2.2 WNW 43 59 23 32 979.0 - 0.0
16/10:00am 3.1 -7.9 -1.8 70 1.7 WNW 46 57 25 31 979.1 - 0.0
16/09:30am 2.4 -8.5 -1.6 75 1.4 WNW 46 56 25 30 979.2 - 0.0
16/09:12am 2.4 -9.0 -2.5 70 1.7 W 48 67 26 36 979.1 - 0.0
16/09:00am 3.0 -7.3 -0.8 76 1.4 W 43 57 23 31 979.2 979.5 2.6
16/08:57am 2.8 -8.5 -1.4 74 1.5 WNW 48 67 26 36 979.2 - 2.6
16/08:30am 2.7 -9.0 -1.6 73 1.5 WNW 50 61 27 33 979.0 - 2.6
16/08:00am 1.3 -10.9 -2.5 76 1.3 NW 52 65 28 35 979.3 - 2.6
16/07:30am 2.5 -9.2 -1.7 74 1.5 WNW 50 63 27 34 979.2 - 2.6
16/07:00am 2.0 -9.4 -1.8 76 1.3 WNW 48 61 26 33 979.1 - 2.6
16/06:41am 1.3 -9.2 -1.1 84 0.8 W 44 63 24 34 979.2 - 2.6
16/06:30am 1.3 -9.1 -1.6 81 1.0 W 43 54 23 29 979.2 - 2.6
16/06:00am 1.4 -10.0 -1.8 79 1.1 WNW 48 61 26 33 978.9 979.2 2.6

Other formats

Comma delimited format used in spreadsheet applications
http://www.bom.gov.au/fwo/IDT60801/IDT60801.94998.axf

JavaScript Object Notation format (JSON) in row-major order
http://www.bom.gov.au/fwo/IDT60801/IDT60801.94998.json

Data quality

Most of these data are generated automatically and are frequently updated. Quality checks on data are not normally performed. It is possible for incorrect values to appear. Refer to information at About Latest Weather Observations and please check the disclaimer before using these data.